Time;durP1;ratioP1;P1;durP2;ratioP2;P2;SDS_P1;SDS_P2;PMS_P1;PMS_P2;Temp;Humidity;BMP_temperature;BMP_pressure;BME280_temperature;BME280_humidity;BME280_pressure;Samples;Min_cycle;Max_cycle;Signal;HPM_P1;HPM_P2
2024/03/29 00:00:46;;;;;;;7.35;3.45;;;409.70;1920.00;;;;;;5052577;28;20516;-73
2024/03/29 00:03:12;;;;;;;6.30;3.53;;;409.90;1920.00;;;;;;5051844;28;20039;-72
2024/03/29 00:05:38;;;;;;;5.32;2.80;;;409.90;1920.00;;;;;;5052402;28;20066;-74
2024/03/29 00:08:04;;;;;;;6.97;2.45;;;410.00;1894.40;;;;;;5047556;28;20047;-72
2024/03/29 00:10:30;;;;;;;9.73;3.92;;;410.10;1894.40;;;;;;5050577;28;20048;-73
2024/03/29 00:12:56;;;;;;;14.52;3.22;;;410.10;1894.40;;;;;;5050968;28;20043;-74
2024/03/29 00:15:22;;;;;;;6.65;3.75;;;410.10;1894.40;;;;;;5052679;28;20025;-73
2024/03/29 00:17:48;;;;;;;5.25;2.95;;;410.00;1920.00;;;;;;5051573;28;20039;-73
2024/03/29 00:20:14;;;;;;;7.85;2.95;;;410.00;1920.00;;;;;;5050784;28;20078;-73
2024/03/29 00:22:39;;;;;;;7.72;2.92;;;410.20;1894.40;;;;;;5050375;28;20049;-74
2024/03/29 00:25:06;;;;;;;6.28;2.58;;;410.20;1894.40;;;;;;5050343;28;20247;-73
2024/03/29 00:27:32;;;;;;;8.65;2.83;;;410.20;1894.40;;;;;;5052185;28;20024;-74
2024/03/29 00:29:58;;;;;;;5.60;2.92;;;410.30;1894.40;;;;;;5051688;28;20029;-73
2024/03/29 00:32:26;;;;;;;9.85;2.70;;;410.30;1894.40;;;;;;5052146;28;20375;-73
2024/03/29 00:34:54;;;;;;;6.68;3.28;;;410.30;1894.40;;;;;;5048528;28;20037;-73
2024/03/29 00:37:20;;;;;;;5.85;2.53;;;410.30;1868.80;;;;;;5051887;28;20018;-74
2024/03/29 00:39:46;;;;;;;8.15;2.70;;;410.40;1868.80;;;;;;5051423;28;20570;-74
2024/03/29 00:42:15;;;;;;;10.27;3.42;;;410.50;1868.80;;;;;;5051920;28;20060;-74
2024/03/29 00:44:43;;;;;;;4.18;2.33;;;410.30;1894.40;;;;;;5051728;28;20033;-73
2024/03/29 00:47:10;;;;;;;7.57;3.53;;;410.40;1894.40;;;;;;5051692;28;20017;-73
2024/03/29 00:49:36;;;;;;;8.40;3.63;;;410.30;1894.40;;;;;;5051377;28;20021;-74
2024/03/29 00:52:03;;;;;;;12.10;5.32;;;410.30;1894.40;;;;;;5051815;28;20025;-72
2024/03/29 00:54:30;;;;;;;26.20;15.98;;;410.30;1894.40;;;;;;5049961;28;20082;-74
2024/03/29 00:56:56;;;;;;;34.00;19.90;;;410.30;1894.40;;;;;;5051534;28;20032;-73
2024/03/29 00:59:22;;;;;;;22.80;14.43;;;410.20;1894.40;;;;;;5050875;28;20017;-72
2024/03/29 01:01:49;;;;;;;19.42;13.38;;;410.10;1920.00;;;;;;5051241;28;20367;-73
2024/03/29 01:04:15;;;;;;;14.70;8.15;;;410.00;1920.00;;;;;;5051060;28;20036;-73
2024/03/29 01:06:40;;;;;;;7.85;4.28;;;410.00;1945.60;;;;;;5051262;28;20024;-73
2024/03/29 01:09:07;;;;;;;5.88;3.60;;;409.90;1945.60;;;;;;5050970;28;20051;-73
2024/03/29 01:11:33;;;;;;;5.68;2.90;;;409.90;1945.60;;;;;;5051596;28;20489;-72
2024/03/29 01:13:59;;;;;;;6.07;3.38;;;409.90;1945.60;;;;;;5051025;28;20024;-73
2024/03/29 01:16:25;;;;;;;20.25;12.07;;;409.80;1945.60;;;;;;5051451;28;20067;-74
2024/03/29 01:18:52;;;;;;;25.33;18.25;;;409.90;1945.60;;;;;;5050565;28;20032;-74
2024/03/29 01:21:18;;;;;;;22.38;10.80;;;409.60;1971.20;;;;;;5051018;28;20534;-74
2024/03/29 01:23:44;;;;;;;12.82;8.65;;;384.90;1971.20;;;;;;5050765;28;20116;-74
2024/03/29 01:26:14;;;;;;;7.15;5.10;;;384.80;1971.20;;;;;;5050838;28;20410;-74
2024/03/29 01:28:40;;;;;;;6.60;3.85;;;384.80;1971.20;;;;;;5050955;28;20021;-74
2024/03/29 01:31:06;;;;;;;7.22;3.28;;;384.80;1971.20;;;;;;5051017;28;20471;-73
2024/03/29 01:33:36;;;;;;;5.75;2.95;;;384.80;1971.20;;;;;;5050818;28;20483;-74
2024/03/29 01:36:02;;;;;;;6.35;2.63;;;384.80;1971.20;;;;;;5050794;28;20082;-73
2024/03/29 01:38:28;;;;;;;7.10;2.95;;;384.90;1971.20;;;;;;5050498;28;20032;-73
2024/03/29 01:40:54;;;;;;;6.47;3.03;;;384.90;1971.20;;;;;;5050780;28;20060;-73
2024/03/29 01:43:20;;;;;;;7.22;3.35;;;384.90;1971.20;;;;;;5050718;28;20383;-73
2024/03/29 01:45:49;;;;;;;4.65;2.72;;;384.90;1971.20;;;;;;5050405;28;20372;-73
2024/03/29 01:48:17;;;;;;;7.43;2.85;;;384.90;1971.20;;;;;;5050618;28;20033;-74
2024/03/29 01:50:43;;;;;;;7.30;3.20;;;384.80;1971.20;;;;;;5050562;28;20052;-74
2024/03/29 01:53:09;;;;;;;9.25;3.20;;;384.80;1971.20;;;;;;5050285;28;20029;-73
2024/03/29 01:55:36;;;;;;;5.78;3.25;;;384.80;1971.20;;;;;;5050204;28;20017;-74
2024/03/29 01:58:02;;;;;;;5.45;2.90;;;384.70;1996.80;;;;;;5050489;28;20099;-73
2024/03/29 02:00:30;;;;;;;8.18;3.97;;;384.60;1996.80;;;;;;5050324;28;20032;-74
2024/03/29 02:02:57;;;;;;;6.28;4.15;;;384.60;1996.80;;;;;;5050003;28;20056;-74
2024/03/29 02:05:24;;;;;;;12.38;4.40;;;384.60;1996.80;;;;;;5049916;28;20071;-73
2024/03/29 02:07:51;;;;;;;11.73;5.68;;;384.50;2022.40;;;;;;5050113;28;20410;-74
2024/03/29 02:10:17;;;;;;;10.18;3.70;;;384.40;2022.40;;;;;;5050042;28;20470;-74
2024/03/29 02:12:42;;;;;;;4.85;2.70;;;384.30;2022.40;;;;;;5049940;28;20029;-73
2024/03/29 02:15:08;;;;;;;13.57;5.28;;;384.20;2048.00;;;;;;5050094;28;20522;-74
2024/03/29 02:17:34;;;;;;;7.03;3.58;;;384.20;2048.00;;;;;;5049824;28;20379;-74
2024/03/29 02:20:00;;;;;;;7.45;3.70;;;384.10;2048.00;;;;;;5049510;28;20036;-73
2024/03/29 02:22:29;;;;;;;12.80;3.67;;;384.00;2048.00;;;;;;5049599;28;20017;-74
2024/03/29 02:24:55;;;;;;;10.57;5.35;;;384.00;2073.60;;;;;;5049636;28;20114;-73
2024/03/29 02:27:22;;;;;;;12.98;6.63;;;384.00;2073.60;;;;;;5049683;28;20017;-74
2024/03/29 02:29:48;;;;;;;11.27;5.28;;;359.30;2073.60;;;;;;5049732;28;20025;-74
2024/03/29 02:32:14;;;;;;;7.93;4.63;;;359.30;2073.60;;;;;;5036821;28;20375;-74
2024/03/29 02:34:40;;;;;;;7.93;3.80;;;384.00;2073.60;;;;;;5049501;28;20032;-74
2024/03/29 02:37:06;;;;;;;9.70;3.70;;;384.00;2073.60;;;;;;5049103;28;20135;-74
2024/03/29 02:39:32;;;;;;;10.07;4.55;;;384.00;2073.60;;;;;;5049302;28;20094;-74
2024/03/29 02:41:58;;;;;;;7.32;3.15;;;384.10;2073.60;;;;;;5049747;28;20033;-74
2024/03/29 02:44:25;;;;;;;10.25;4.03;;;384.10;2073.60;;;;;;5049627;28;20086;-73
2024/03/29 02:46:50;;;;;;;7.45;3.30;;;384.10;2073.60;;;;;;5049554;28;20417;-74
2024/03/29 02:49:16;;;;;;;8.88;3.80;;;384.20;2073.60;;;;;;5049363;28;20029;-73
2024/03/29 02:51:42;;;;;;;13.50;3.20;;;384.30;2073.60;;;;;;5050064;28;20021;-73
2024/03/29 02:54:08;;;;;;;6.47;3.53;;;384.30;2073.60;;;;;;5049320;28;20561;-73
2024/03/29 02:56:34;;;;;;;7.40;3.40;;;384.30;2073.60;;;;;;5049545;28;20094;-74
2024/03/29 02:58:59;;;;;;;8.00;3.05;;;384.40;2073.60;;;;;;5049018;28;20048;-73
2024/03/29 03:01:25;;;;;;;11.45;3.13;;;384.20;2073.60;;;;;;5049259;28;20088;-74
2024/03/29 03:03:51;;;;;;;10.23;3.33;;;384.60;2048.00;;;;;;5049284;28;20036;-73
2024/03/29 03:06:18;;;;;;;7.10;2.95;;;384.60;2048.00;;;;;;5049090;28;20429;-74
2024/03/29 03:11:28;;;;;;;6.55;2.78;;;384.80;2048.00;;;;;;5049656;28;20079;-74
2024/03/29 03:13:54;;;;;;;6.90;3.53;;;384.90;2022.40;;;;;;5049002;28;20032;-74
2024/03/29 03:16:20;;;;;;;9.73;3.35;;;409.60;2048.00;;;;;;5049174;28;20025;-73
2024/03/29 03:18:45;;;;;;;4.85;2.65;;;409.70;2048.00;;;;;;5047844;28;20544;-74
2024/03/29 03:21:12;;;;;;;9.77;2.60;;;409.70;2048.00;;;;;;5048991;28;20040;-75
2024/03/29 03:23:37;;;;;;;9.23;2.60;;;409.80;2048.00;;;;;;5048723;28;20509;-73
2024/03/29 03:26:03;;;;;;;7.60;2.63;;;409.80;2048.00;;;;;;5048643;28;20029;-72
2024/03/29 03:28:30;;;;;;;9.18;3.28;;;409.90;2048.00;;;;;;5048883;28;20029;-73
2024/03/29 03:30:56;;;;;;;7.60;3.67;;;409.90;2048.00;;;;;;5048826;28;20022;-74
2024/03/29 03:33:22;;;;;;;8.48;3.47;;;409.80;2048.00;;;;;;5048983;28;20029;-73
2024/03/29 03:35:48;;;;;;;17.40;9.70;;;409.80;2048.00;;;;;;5048501;28;20021;-73
2024/03/29 03:38:15;;;;;;;19.00;9.63;;;409.70;2048.00;;;;;;5048746;28;20028;-74
2024/03/29 03:40:41;;;;;;;13.23;6.53;;;409.70;2048.00;;;;;;5048636;28;20572;-73
2024/03/29 03:43:07;;;;;;;11.02;6.20;;;409.60;2048.00;;;;;;5048337;28;20084;-74
2024/03/29 03:45:37;;;;;;;9.60;3.67;;;384.90;2048.00;;;;;;5048964;28;20013;-74
2024/03/29 03:48:04;;;;;;;6.32;3.47;;;384.90;2048.00;;;;;;5048543;28;20110;-74
2024/03/29 03:50:30;;;;;;;11.82;4.68;;;384.90;2048.00;;;;;;5048529;28;20124;-74
2024/03/29 03:52:56;;;;;;;13.88;5.55;;;384.80;2048.00;;;;;;5048523;28;20100;-74
2024/03/29 03:55:22;;;;;;;16.35;7.35;;;384.60;2073.60;;;;;;5048408;28;20013;-73
2024/03/29 03:57:48;;;;;;;10.18;6.45;;;384.20;2099.20;;;;;;5048733;28;20075;-74
2024/03/29 04:00:14;;;;;;;17.13;7.78;;;384.10;2124.80;;;;;;5048779;28;20056;-74
2024/03/29 04:02:40;;;;;;;24.33;14.30;;;359.30;2150.40;;;;;;5048503;28;20060;-73
2024/03/29 04:05:07;;;;;;;14.13;8.57;;;359.30;2150.40;;;;;;5048653;28;20047;-74
2024/03/29 04:07:33;;;;;;;14.55;7.40;;;359.20;2150.40;;;;;;5048716;28;20475;-74
2024/03/29 04:09:58;;;;;;;15.15;7.03;;;359.10;2176.00;;;;;;5048158;28;20052;-73
2024/03/29 04:12:28;;;;;;;14.27;6.80;;;359.00;2176.00;;;;;;5048628;28;20033;-73
2024/03/29 04:14:53;;;;;;;16.35;6.38;;;359.00;2176.00;;;;;;5048713;28;20383;-73
2024/03/29 04:17:22;;;;;;;12.85;5.38;;;359.00;2201.60;;;;;;5048349;28;20025;-72
2024/03/29 04:19:48;;;;;;;18.30;5.43;;;359.00;2176.00;;;;;;5048253;28;20051;-73
2024/03/29 04:22:14;;;;;;;9.45;5.15;;;359.00;2201.60;;;;;;5048470;28;20029;-73
2024/03/29 04:24:39;;;;;;;16.58;9.13;;;359.00;2201.60;;;;;;5048077;28;20064;-73
2024/03/29 04:27:05;;;;;;;41.47;31.05;;;359.10;2201.60;;;;;;5048264;28;20021;-73
2024/03/29 04:29:31;;;;;;;42.17;28.83;;;359.20;2201.60;;;;;;5050396;28;20044;-73
2024/03/29 04:31:57;;;;;;;14.68;7.10;;;359.20;2201.60;;;;;;5051942;28;20417;-73
2024/03/29 04:34:23;;;;;;;14.07;9.15;;;359.20;2201.60;;;;;;5051723;28;20173;-73
2024/03/29 04:36:48;;;;;;;8.73;5.15;;;359.30;2201.60;;;;;;5051732;28;20029;-74
2024/03/29 04:39:14;;;;;;;9.43;3.58;;;359.30;2176.00;;;;;;5051494;28;20067;-73
2024/03/29 04:41:40;;;;;;;8.55;3.75;;;384.00;2176.00;;;;;;5051781;28;20056;-73
2024/03/29 04:44:07;;;;;;;8.20;3.53;;;384.00;2176.00;;;;;;5051596;28;20116;-73
2024/03/29 04:46:33;;;;;;;7.50;2.75;;;384.10;2176.00;;;;;;5051710;28;20017;-73
2024/03/29 04:48:59;;;;;;;12.68;4.53;;;384.10;2176.00;;;;;;5051652;28;20430;-73
2024/03/29 04:51:25;;;;;;;12.95;5.20;;;384.10;2176.00;;;;;;5051510;28;20570;-74
2024/03/29 04:53:51;;;;;;;12.40;4.95;;;384.20;2176.00;;;;;;5051692;28;20036;-74
2024/03/29 04:56:17;;;;;;;13.25;6.13;;;384.20;2176.00;;;;;;5051920;28;20020;-73
2024/03/29 04:58:43;;;;;;;53.45;21.08;;;384.20;2176.00;;;;;;5042766;28;20036;-73
2024/03/29 05:01:09;;;;;;;20.80;8.55;;;384.40;2150.40;;;;;;5047504;28;20021;-73
2024/03/29 05:03:35;;;;;;;9.32;7.70;;;384.40;2150.40;;;;;;5051277;28;20044;-73
2024/03/29 05:06:01;;;;;;;13.90;5.88;;;384.40;2176.00;;;;;;5044415;28;20026;-73
2024/03/29 05:08:27;;;;;;;26.00;11.98;;;384.40;2150.40;;;;;;5051312;28;20035;-74
2024/03/29 05:10:53;;;;;;;16.63;10.30;;;384.20;2176.00;;;;;;5051436;28;20383;-73
2024/03/29 05:13:22;;;;;;;21.48;16.92;;;384.20;2176.00;;;;;;5047189;28;20029;-73
2024/03/29 05:15:48;;;;;;;29.08;25.85;;;384.10;2201.60;;;;;;5047541;28;20055;-73
2024/03/29 05:18:14;;;;;;;21.98;17.85;;;384.30;2176.00;;;;;;5051158;28;20478;-72
2024/03/29 05:20:41;;;;;;;19.70;15.38;;;384.30;2176.00;;;;;;5033763;28;20521;-73
2024/03/29 05:23:07;;;;;;;19.02;10.88;;;384.30;2176.00;;;;;;5041218;28;20690;-72
2024/03/29 05:25:33;;;;;;;24.13;11.88;;;384.40;2176.00;;;;;;5063316;28;20028;-68
2024/03/29 05:27:59;;;;;;;22.27;12.65;;;384.40;2176.00;;;;;;5044785;28;20106;-70
2024/03/29 05:30:26;;;;;;;57.33;29.33;;;384.50;2176.00;;;;;;5050949;28;20025;-70
2024/03/29 05:32:52;;;;;;;18.52;10.18;;;384.50;2176.00;;;;;;5051075;28;20017;-69
2024/03/29 05:35:18;;;;;;;15.07;8.18;;;384.60;2176.00;;;;;;5042221;28;20478;-74
2024/03/29 05:37:49;;;;;;;22.05;8.75;;;384.70;2176.00;;;;;;5042945;28;20052;-73
2024/03/29 05:40:15;;;;;;;17.77;7.55;;;409.70;2176.00;;;;;;5043783;28;20045;-69
2024/03/29 05:42:41;;;;;;;15.35;7.35;;;435.20;2099.20;;;;;;5042227;28;20030;-70
2024/03/29 05:45:24;;;;;;;16.88;9.55;;;435.60;2073.60;;;;;;5050381;28;20032;-69
2024/03/29 05:47:51;;;;;;;16.33;7.97;;;435.80;2048.00;;;;;;5050591;28;20029;-70
2024/03/29 05:50:17;;;;;;;24.10;9.65;;;460.80;2022.40;;;;;;5050287;28;20047;-72
2024/03/29 05:52:43;;;;;;;15.07;8.38;;;460.80;2022.40;;;;;;5047622;28;20032;-75
2024/03/29 05:55:09;;;;;;;15.45;6.35;;;461.00;1996.80;;;;;;5040947;28;20099;-71
2024/03/29 05:57:39;;;;;;;20.42;5.68;;;461.20;1996.80;;;;;;5043182;28;20384;-71
2024/03/29 06:00:06;;;;;;;9.50;5.50;;;461.30;1971.20;;;;;;5050436;28;20079;-70
2024/03/29 06:02:31;;;;;;;10.80;6.20;;;461.60;1945.60;;;;;;5050477;28;20490;-70
2024/03/29 06:04:57;;;;;;;13.95;7.82;;;486.50;1920.00;;;;;;5049994;28;20056;-70
2024/03/29 06:07:23;;;;;;;15.50;7.25;;;486.90;1894.40;;;;;;5050469;28;20021;-70
2024/03/29 06:09:49;;;;;;;16.83;7.22;;;512.00;1868.80;;;;;;5049684;28;20391;-70
2024/03/29 06:12:15;;;;;;;13.68;8.13;;;512.70;1817.60;;;;;;5050823;28;20116;-76
2024/03/29 06:17:25;;;;;;;13.90;8.60;;;563.90;1715.20;;;;;;5050243;28;20044;-70
2024/03/29 06:19:54;;;;;;;15.25;7.57;;;614.50;1612.80;;;;;;5049746;28;20020;-70
2024/03/29 06:22:20;;;;;;;14.63;8.90;;;640.20;1536.00;;;;;;5049660;28;20486;-75
2024/03/29 06:24:47;;;;;;;21.25;7.57;;;665.90;1510.40;;;;;;5048495;28;20041;-71
2024/03/29 06:27:17;;;;;;;13.68;6.70;;;691.70;1433.60;;;;;;5049996;28;20046;-72
2024/03/29 06:29:44;;;;;;;12.40;6.60;;;742.40;1382.40;;;;;;5049771;28;20017;-70
2024/03/29 06:32:10;;;;;;;12.00;7.20;;;768.10;1305.60;;;;;;5049714;28;20033;-73
2024/03/29 06:34:36;;;;;;;13.13;9.13;;;768.80;1280.00;;;;;;5049770;28;20388;-70
2024/03/29 06:37:02;;;;;;;13.93;7.68;;;819.30;1254.40;;;;;;5049891;28;20017;-71
2024/03/29 06:39:28;;;;;;;14.55;9.57;;;845.10;1203.20;;;;;;5049194;28;20041;-71
2024/03/29 06:41:54;;;;;;;14.93;8.68;;;845.30;1203.20;;;;;;5049324;28;20028;-72
2024/03/29 06:44:20;;;;;;;13.52;11.57;;;845.70;1177.60;;;;;;5049223;28;20120;-77
2024/03/29 06:46:46;;;;;;;15.25;10.40;;;845.70;1177.60;;;;;;5049549;28;20147;-75
2024/03/29 06:49:12;;;;;;;11.00;6.32;;;896.00;1126.40;;;;;;5049486;28;20029;-70
2024/03/29 06:51:42;;;;;;;8.93;6.03;;;896.20;1100.80;;;;;;5049388;28;20021;-76
2024/03/29 06:54:09;;;;;;;11.00;6.22;;;896.00;1100.80;;;;;;5049290;28;20478;-71
2024/03/29 06:56:35;;;;;;;11.93;6.55;;;896.60;1075.20;;;;;;5049356;28;20108;-71
2024/03/29 06:59:01;;;;;;;10.95;6.53;;;921.80;1075.20;;;;;;5049670;28;20025;-74
2024/03/29 07:01:27;;;;;;;12.70;7.32;;;896.80;1075.20;;;;;;5049218;28;20336;-71
2024/03/29 07:03:53;;;;;;;15.80;7.00;;;921.70;1075.20;;;;;;5049309;28;20044;-70
2024/03/29 07:06:18;;;;;;;18.85;8.57;;;896.50;1075.20;;;;;;5049120;28;20455;-72
2024/03/29 07:08:45;;;;;;;13.88;8.25;;;896.60;1075.20;;;;;;5049500;28;20033;-72
2024/03/29 07:11:10;;;;;;;18.13;8.80;;;921.70;1075.20;;;;;;5049249;28;20529;-74
2024/03/29 07:13:36;;;;;;;14.60;8.90;;;922.00;1075.20;;;;;;5049084;28;20036;-73
2024/03/29 07:16:03;;;;;;;24.73;13.40;;;922.40;1049.60;;;;;;5049177;28;20493;-71
2024/03/29 07:18:29;;;;;;;21.33;11.20;;;922.10;1075.20;;;;;;5049059;28;20037;-76
2024/03/29 07:20:55;;;;;;;14.10;9.93;;;922.30;1075.20;;;;;;5049183;28;20057;-72
2024/03/29 07:23:21;;;;;;;20.10;9.32;;;947.30;1049.60;;;;;;5049254;28;20071;-73
2024/03/29 07:26:00;;;;;;;18.10;8.85;;;922.50;1049.60;;;;;;5048973;28;20052;-72
2024/03/29 07:28:26;;;;;;;15.73;9.60;;;972.90;1024.00;;;;;;5048818;28;20025;-71
2024/03/29 07:30:55;;;;;;;13.57;8.68;;;998.40;1049.60;;;;;;5049276;28;20021;-72
2024/03/29 07:33:28;;;;;;;11.55;7.53;;;998.60;1024.00;;;;;;5048853;28;20467;-72
2024/03/29 07:35:54;;;;;;;13.48;9.50;;;1024.30;972.80;;;;;;5048997;28;20035;-74
2024/03/29 07:38:24;;;;;;;12.13;7.20;;;1024.70;972.80;;;;;;5048618;28;20063;-75
2024/03/29 07:40:50;;;;;;;10.25;7.80;;;1049.90;972.80;;;;;;5048624;28;20049;-72
2024/03/29 07:43:16;;;;;;;11.98;7.55;;;1050.30;947.20;;;;;;5048320;28;20505;-77
2024/03/29 07:45:45;;;;;;;10.07;5.85;;;1050.50;947.20;;;;;;5049061;28;20104;-71
2024/03/29 07:48:18;;;;;;;8.07;6.57;;;1075.30;896.00;;;;;;5048939;28;20475;-71
2024/03/29 07:50:45;;;;;;;11.77;6.32;;;1075.80;896.00;;;;;;5048908;28;20028;-71
2024/03/29 07:53:12;;;;;;;7.30;4.95;;;1100.90;921.60;;;;;;5048825;28;20013;-71
2024/03/29 07:55:39;;;;;;;8.18;5.10;;;1101.10;896.00;;;;;;5048624;28;20021;-71
2024/03/29 07:58:05;;;;;;;11.98;5.95;;;1101.10;896.00;;;;;;5048750;28;20053;-72
2024/03/29 08:00:32;;;;;;;14.32;6.50;;;1101.10;870.40;;;;;;5048793;28;20050;-72
2024/03/29 08:02:59;;;;;;;10.38;8.30;;;1100.90;896.00;;;;;;5047917;28;20060;-70
2024/03/29 08:05:25;;;;;;;7.72;5.40;;;1101.30;870.40;;;;;;5045354;28;20689;-69
2024/03/29 08:07:51;;;;;;;9.32;5.72;;;1101.30;870.40;;;;;;5051156;28;20029;-72
2024/03/29 08:10:16;;;;;;;10.73;6.32;;;1101.30;870.40;;;;;;5050030;28;20041;-71
2024/03/29 08:12:43;;;;;;;7.60;5.75;;;1101.30;870.40;;;;;;5050186;28;20103;-71
2024/03/29 08:15:09;;;;;;;10.38;5.75;;;1101.70;870.40;;;;;;5051989;28;20043;-71
2024/03/29 08:17:36;;;;;;;17.85;9.27;;;1126.80;870.40;;;;;;5052364;28;20467;-71
2024/03/29 08:20:02;;;;;;;12.18;7.90;;;1126.80;870.40;;;;;;5052088;28;20128;-72
2024/03/29 08:22:28;;;;;;;13.38;9.02;;;1126.40;870.40;;;;;;5052156;28;20517;-72
2024/03/29 08:24:55;;;;;;;10.45;7.78;;;1101.50;844.80;;;;;;5051961;28;20025;-71
2024/03/29 08:27:21;;;;;;;7.60;6.80;;;1101.40;844.80;;;;;;5052041;28;20475;-73
2024/03/29 08:29:49;;;;;;;13.18;11.88;;;1126.60;870.40;;;;;;5051865;28;20032;-71
2024/03/29 08:32:15;;;;;;;14.70;10.45;;;1127.10;844.80;;;;;;5052056;28;20017;-69
2024/03/29 08:34:40;;;;;;;10.48;9.48;;;1127.10;844.80;;;;;;5051754;28;20573;-71
2024/03/29 08:37:07;;;;;;;9.55;6.28;;;1152.10;819.20;;;;;;5051478;28;20029;-75
2024/03/29 08:39:32;;;;;;;7.65;6.35;;;1152.50;819.20;;;;;;5051480;28;20080;-71
2024/03/29 08:41:59;;;;;;;8.65;5.88;;;1152.50;819.20;;;;;;5051637;28;20450;-78
2024/03/29 08:44:25;;;;;;;8.65;7.30;;;1152.20;844.80;;;;;;5051821;28;20021;-71
2024/03/29 08:46:52;;;;;;;13.73;11.68;;;1127.00;819.20;;;;;;5052078;28;20553;-77
2024/03/29 08:49:18;;;;;;;14.70;11.73;;;1126.50;844.80;;;;;;5050596;28;20041;-76
2024/03/29 08:51:43;;;;;;;12.23;7.85;;;1101.10;844.80;;;;;;5051511;28;20068;-71
2024/03/29 08:54:09;;;;;;;9.55;8.25;;;1050.20;870.40;;;;;;5040287;28;20045;-71
2024/03/29 08:56:36;;;;;;;11.90;8.10;;;1024.00;921.60;;;;;;5033826;28;20021;-71
2024/03/29 08:59:07;;;;;;;6.00;5.22;;;973.20;921.60;;;;;;5032983;28;20033;-75
2024/03/29 09:01:35;;;;;;;17.52;10.57;;;922.10;947.20;;;;;;5038461;28;20418;-72
2024/03/29 09:04:01;;;;;;;16.17;10.93;;;871.30;972.80;;;;;;5051383;28;20126;-76
2024/03/29 09:06:27;;;;;;;7.07;4.53;;;845.50;1024.00;;;;;;5051205;28;20104;-75
2024/03/29 09:08:53;;;;;;;14.27;6.70;;;819.60;1049.60;;;;;;5051120;28;20445;-77
2024/03/29 09:11:19;;;;;;;11.15;7.18;;;794.20;1126.40;;;;;;5050983;28;20066;-76
2024/03/29 09:13:45;;;;;;;7.90;4.10;;;793.80;1126.40;;;;;;5051093;28;20127;-77
2024/03/29 09:16:10;;;;;;;7.28;4.45;;;768.80;1100.80;;;;;;5049900;28;20024;-77
2024/03/29 09:18:36;;;;;;;9.65;4.55;;;768.60;1100.80;;;;;;5051148;28;20071;-73
2024/03/29 09:21:03;;;;;;;5.75;3.78;;;768.10;1152.00;;;;;;5051081;28;20017;-77
2024/03/29 09:23:29;;;;;;;7.03;3.85;;;743.10;1177.60;;;;;;5050898;28;20025;-77
2024/03/29 09:25:58;;;;;;;9.60;4.07;;;742.90;1177.60;;;;;;5050582;28;20029;-76
2024/03/29 09:28:24;;;;;;;9.27;3.45;;;742.70;1203.20;;;;;;5050572;28;20033;-77
2024/03/29 09:30:50;;;;;;;15.85;8.10;;;742.40;1177.60;;;;;;5050538;28;20028;-70
2024/03/29 09:33:16;;;;;;;7.85;3.50;;;717.50;1177.60;;;;;;5050989;28;20037;-72
2024/03/29 09:35:43;;;;;;;8.52;4.53;;;717.30;1228.80;;;;;;5050644;28;20352;-71
2024/03/29 09:38:09;;;;;;;10.73;4.15;;;717.40;1203.20;;;;;;5050505;28;20714;-72
2024/03/29 09:40:36;;;;;;;8.95;3.53;;;717.40;1203.20;;;;;;5050120;28;20116;-70
2024/03/29 09:43:02;;;;;;;11.95;4.10;;;717.50;1228.80;;;;;;5050451;28;20056;-70
2024/03/29 09:45:36;;;;;;;9.25;4.07;;;717.50;1254.40;;;;;;5050796;28;20446;-70
2024/03/29 09:48:06;;;;;;;17.35;3.88;;;717.40;1228.80;;;;;;5050683;28;20013;-71
2024/03/29 09:50:37;;;;;;;9.43;3.80;;;717.30;1228.80;;;;;;5050736;28;20021;-76
2024/03/29 09:53:05;;;;;;;7.60;3.50;;;717.50;1254.40;;;;;;5039212;28;20475;-69
2024/03/29 09:55:31;;;;;;;6.75;3.47;;;717.40;1177.60;;;;;;5034577;28;20024;-70
2024/03/29 09:57:57;;;;;;;9.10;3.38;;;717.70;1177.60;;;;;;5037947;28;20037;-72
2024/03/29 10:00:24;;;;;;;7.55;4.35;;;717.60;1177.60;;;;;;5034244;28;20028;-76
2024/03/29 10:02:55;;;;;;;7.97;3.88;;;717.50;1203.20;;;;;;5037225;28;20021;-73
2024/03/29 10:05:22;;;;;;;9.90;3.90;;;717.20;1203.20;;;;;;5033760;28;20025;-69
2024/03/29 10:07:48;;;;;;;10.07;3.95;;;717.20;1203.20;;;;;;5030353;28;20410;-70
2024/03/29 10:10:14;;;;;;;5.75;3.38;;;717.20;1228.80;;;;;;5030431;28;20033;-78
2024/03/29 10:12:40;;;;;;;10.15;4.10;;;717.20;1228.80;;;;;;5045968;28;20059;-72
2024/03/29 10:15:11;;;;;;;9.95;3.70;;;717.20;1203.20;;;;;;5049731;28;20503;-77
2024/03/29 10:17:38;;;;;;;7.47;4.20;;;717.50;1228.80;;;;;;5048248;28;20070;-72
2024/03/29 10:20:05;;;;;;;6.13;3.67;;;742.40;1305.60;;;;;;5049043;28;20493;-76
2024/03/29 10:22:40;;;;;;;8.18;3.60;;;742.40;1254.40;;;;;;5047301;28;20032;-71
2024/03/29 10:25:06;;;;;;;10.43;3.33;;;717.60;1177.60;;;;;;5047723;28;20029;-79
2024/03/29 10:27:33;;;;;;;6.45;3.30;;;717.70;1152.00;;;;;;5047151;28;20025;-70
2024/03/29 10:29:59;;;;;;;5.40;3.08;;;717.60;1177.60;;;;;;5046933;28;20057;-69
2024/03/29 10:32:25;;;;;;;8.32;3.25;;;742.40;1177.60;;;;;;5046964;28;20017;-70
2024/03/29 10:34:51;;;;;;;6.65;3.30;;;717.70;1152.00;;;;;;5049503;28;20037;-77
2024/03/29 10:37:26;;;;;;;8.18;3.28;;;717.70;1177.60;;;;;;5036160;28;20033;-70
2024/03/29 10:39:52;;;;;;;6.00;3.20;;;717.70;1152.00;;;;;;5029434;28;20119;-73
2024/03/29 10:42:20;;;;;;;12.93;3.95;;;742.40;1152.00;;;;;;5040150;28;20030;-70
2024/03/29 10:44:49;;;;;;;7.88;3.30;;;742.40;1177.60;;;;;;5039232;28;20032;-70
2024/03/29 10:47:20;;;;;;;6.30;4.07;;;717.70;1177.60;;;;;;5046953;28;20078;-76
2024/03/29 10:49:51;;;;;;;8.23;3.75;;;742.50;1228.80;;;;;;5038252;28;20638;-69
2024/03/29 10:52:27;;;;;;;7.82;3.88;;;742.40;1177.60;;;;;;5035098;28;20251;-70
2024/03/29 10:54:56;;;;;;;9.98;3.97;;;717.50;1177.60;;;;;;5027092;28;20041;-71
2024/03/29 10:57:26;;;;;;;7.70;4.55;;;717.20;1203.20;;;;;;5037648;28;20027;-76
2024/03/29 11:00:08;;;;;;;10.27;4.32;;;717.40;1203.20;;;;;;5049380;28;20059;-72
2024/03/29 11:02:51;;;;;;;9.00;4.10;;;717.40;1228.80;;;;;;5049382;28;20025;-70
2024/03/29 11:05:17;;;;;;;;;;;717.00;1203.20;;;;;;5043557;28;20018;-70
2024/03/29 11:07:45;;;;;;;7.65;3.42;;;716.80;1228.80;;;;;;5030682;28;19930;-74
2024/03/29 11:10:20;;;;;;;8.98;3.60;;;716.90;1254.40;;;;;;5037106;28;20021;-70
2024/03/29 11:13:19;;;;;;;9.50;3.55;;;716.90;1203.20;;;;;;5030361;28;20030;-71
2024/03/29 11:15:47;;;;;;;8.73;3.85;;;716.80;1228.80;;;;;;5031185;28;20038;-69
2024/03/29 11:18:16;;;;;;;8.65;3.58;;;716.80;1228.80;;;;;;5031850;28;20021;-68
2024/03/29 11:20:46;;;;;;;18.48;3.88;;;692.00;1203.20;;;;;;5039649;28;20036;-68
2024/03/29 11:23:15;;;;;;;7.85;3.30;;;692.10;1177.60;;;;;;5046157;28;20017;-78
2024/03/29 11:25:53;;;;;;;6.75;3.35;;;692.10;1177.60;;;;;;5042931;28;20809;-71
2024/03/29 11:28:32;;;;;;;8.25;3.33;;;691.90;1177.60;;;;;;5045823;28;20533;-71
2024/03/29 11:31:01;;;;;;;8.98;3.80;;;691.80;1203.20;;;;;;5042311;28;20479;-70
2024/03/29 11:33:31;;;;;;;9.43;3.95;;;691.80;1177.60;;;;;;5047725;28;20037;-71
2024/03/29 11:36:16;;;;;;;14.38;3.88;;;691.90;1177.60;;;;;;5037528;28;20027;-69
2024/03/29 11:38:43;;;;;;;10.15;3.40;;;691.90;1177.60;;;;;;5049179;28;20473;-70
2024/03/29 11:41:16;;;;;;;10.18;3.55;;;691.90;1177.60;;;;;;5052527;28;20112;-70
2024/03/29 11:43:43;;;;;;;6.40;3.65;;;691.80;1177.60;;;;;;5038880;28;20021;-70
2024/03/29 11:46:13;;;;;;;8.38;3.50;;;691.90;1203.20;;;;;;5052963;28;20032;-71
2024/03/29 11:48:40;;;;;;;9.57;3.60;;;691.90;1280.00;;;;;;5052908;28;20032;-70
2024/03/29 11:51:17;;;;;;;9.88;3.97;;;692.00;1203.20;;;;;;5052783;28;20017;-71
2024/03/29 11:53:43;;;;;;;9.50;3.65;;;691.80;1177.60;;;;;;5052681;28;20029;-70
2024/03/29 11:56:11;;;;;;;6.13;3.22;;;691.70;1203.20;;;;;;5052554;28;20022;-72
2024/03/29 11:58:38;;;;;;;7.80;3.30;;;691.40;1203.20;;;;;;5052666;28;20017;-70
2024/03/29 12:01:05;;;;;;;7.43;3.45;;;691.20;1203.20;;;;;;5046906;28;20025;-70
2024/03/29 12:03:32;;;;;;;8.27;3.97;;;666.50;1228.80;;;;;;5052161;28;20467;-75
2024/03/29 12:06:01;;;;;;;9.73;4.00;;;691.20;1228.80;;;;;;5050458;28;20076;-69
2024/03/29 12:08:37;;;;;;;8.70;4.40;;;691.50;1228.80;;;;;;5033267;28;20040;-70
2024/03/29 12:11:04;;;;;;;7.60;3.75;;;691.60;1228.80;;;;;;5042298;28;20636;-73
2024/03/29 12:13:31;;;;;;;7.18;4.10;;;691.70;1203.20;;;;;;5037210;28;20141;-69
2024/03/29 12:15:59;;;;;;;8.82;3.60;;;691.70;1228.80;;;;;;5045827;28;20057;-70